createdAt,value
2019-01-19T08:48:51.705Z,98416.28
2019-01-19T08:51:20.858Z,98415.80
2019-01-19T08:53:49.907Z,98410.77
2019-01-19T08:56:19.601Z,98416.73
2019-01-19T08:58:48.162Z,98418.16
2019-01-19T09:01:16.542Z,98418.39
2019-01-19T09:03:44.701Z,98417.01
2019-01-19T09:06:12.725Z,98419.52
2019-01-19T09:08:41.113Z,98417.91
2019-01-19T09:11:09.169Z,98412.03
2019-01-19T09:13:37.525Z,98413.51
2019-01-19T09:16:23.975Z,98406.53
2019-01-19T09:18:52.008Z,98411.14
2019-01-19T09:21:20.031Z,98416.20
2019-01-19T09:23:58.139Z,98414.09
2019-01-19T09:26:26.393Z,98409.58
2019-01-19T09:28:54.512Z,98408.00
2019-01-19T09:31:22.574Z,98408.13
2019-01-19T09:33:50.601Z,98409.70
2019-01-19T09:36:19.064Z,98410.16
2019-01-19T09:38:47.654Z,98407.87
2019-01-19T09:41:16.022Z,98409.48
2019-01-19T09:43:44.150Z,98404.20
2019-01-19T09:46:12.233Z,98401.64
2019-01-19T09:48:40.884Z,98406.89
2019-01-19T09:51:08.930Z,98408.13
2019-01-19T09:53:37.331Z,98407.02
2019-01-19T09:56:05.507Z,98408.55
2019-01-19T09:58:34.171Z,98409.44
2019-01-19T10:01:02.589Z,98405.60
2019-01-19T10:03:30.949Z,98405.51
2019-01-19T10:05:58.945Z,98409.05
2019-01-19T10:08:26.996Z,98403.08
2019-01-19T10:10:55.270Z,98406.63
2019-01-19T10:13:23.522Z,98403.94
2019-01-19T10:15:51.805Z,98396.47
2019-01-19T10:18:20.031Z,98392.70
2019-01-19T10:20:48.068Z,98394.04
2019-01-19T10:23:16.543Z,98390.99
2019-01-19T10:25:45.768Z,98395.08
2019-01-19T10:28:14.118Z,98391.75
2019-01-19T10:30:42.385Z,98387.00
2019-01-19T10:33:10.520Z,98388.25
2019-01-19T10:35:39.462Z,98390.45
2019-01-19T10:38:07.601Z,98387.66
2019-01-19T10:40:35.877Z,98386.19
2019-01-19T10:43:04.235Z,98386.41
2019-01-19T10:45:32.253Z,98383.72
2019-01-19T10:48:00.653Z,98381.04
2019-01-19T10:50:29.350Z,98384.97
2019-01-19T10:52:57.629Z,98386.77
2019-01-19T10:55:25.690Z,98381.40
2019-01-19T10:57:54.588Z,98379.20
2019-01-19T11:00:23.833Z,98370.39
2019-01-19T11:02:51.837Z,98367.86
2019-01-19T11:05:20.241Z,98374.32
2019-01-19T11:07:49.089Z,98373.47
2019-01-19T11:10:18.495Z,98367.44
2019-01-19T11:12:46.793Z,98362.95
2019-01-19T11:15:15.613Z,98359.51
2019-01-19T11:17:43.976Z,98357.31
2019-01-19T11:20:14.093Z,98356.92
2019-01-19T11:22:42.597Z,98347.02
2019-01-19T11:25:11.318Z,98345.81
2019-01-19T11:27:39.477Z,98341.66
2019-01-19T11:30:10.319Z,98340.05
2019-01-19T11:32:44.394Z,98338.67
2019-01-19T11:35:08.897Z,98333.32
2019-01-19T11:37:37.012Z,98326.34
2019-01-19T11:40:07.076Z,98325.13
2019-01-19T11:42:35.229Z,98325.39
2019-01-19T11:45:03.285Z,98321.46
2019-01-19T11:47:31.321Z,98318.02
2019-01-19T11:49:59.728Z,98314.97
2019-01-19T11:52:27.717Z,98319.75
2019-01-19T11:54:56.170Z,98319.56
2019-01-19T11:57:24.532Z,98316.86
2019-01-19T11:59:53.189Z,98308.55
2019-01-19T12:02:21.563Z,98307.69
2019-01-19T12:04:49.941Z,98308.94
2019-01-19T12:07:18.499Z,98303.73
2019-01-19T12:09:47.213Z,98303.97
2019-01-19T12:12:15.241Z,98303.97
2019-01-19T12:14:43.580Z,98298.33
2019-01-19T12:17:12.259Z,98297.48
2019-01-19T12:19:40.404Z,98296.73
2019-01-19T12:22:08.458Z,98295.52
2019-01-19T12:24:36.595Z,98289.26
2019-01-19T12:27:04.996Z,98279.86
2019-01-19T12:29:33.334Z,98285.48
2019-01-19T12:32:01.346Z,98287.72
2019-01-19T12:34:29.787Z,98283.06
2019-01-19T12:36:58.734Z,98285.63
2019-01-19T12:39:26.809Z,98284.14
2019-01-19T12:41:55.130Z,98277.33
2019-01-19T12:44:23.817Z,98284.05
2019-01-19T12:46:52.136Z,98275.13
2019-01-19T12:49:20.161Z,98275.00
2019-01-19T12:51:48.528Z,98274.31
2019-01-19T12:54:16.537Z,98271.75
2019-01-19T12:56:44.964Z,98272.08
2019-01-19T12:59:12.975Z,98267.48
2019-01-19T13:01:41.098Z,98270.19
2019-01-19T13:04:09.098Z,98264.08
2019-01-19T13:06:39.601Z,98260.91
